Adams Field
KLIT : rendu visible

Aérodrome :











RETROUVEZ-NOUS SUR...

 
LOGIN :

S'inscrire | Disclaimer

   EN    FR    IT 

 









Légende :    VFR   VFR Marginal   IFR   IFR Intensif   IFR Très Intensif
Visi : 
Plafond : 
>= 8 km
>= 3000ft
5 à 8 km
1000 à 3000 ft
1500m à 5 km
500 à 1000 ft
800 à 1500m
200 à 500 ft
< 800m
< 200 ft
Symboles :   Orages  Brouillard  Fortes neiges  Fortes précipitations  Vent > 20 kt






- Altitude de l'aérodrome : 262 ft
- Code IATA : LIT


KLIT - Adams Field

DERNIER METAR :
  • 191253Z 26003KT 10SM CLR 05/02 A2989 RMK AO2 SLP126 T00500022

METARs EXPIRÉS :
  • 191153Z 26007KT 10SM CLR 06/02 A2987 RMK AO2 SLP116 T00610022 10106 20056 53012
  • 191053Z 26008KT 10SM CLR 07/03 A2985 RMK AO2 SLP111 T00670028

TAF KLIT
Valide du 19 à 12h jusqu'au 20 à 12h UTC


191133Z 1912/2012 25006KT P6SM SCT250
FM200100 17004KT P6SM SKC



MET'MAP, la Météo Aéronautique d'un coup d'oeil ! - Copyright ORBIFLY Décembre 2007 - Disclaimer

ORBIFLY MET'MAP TEAM :

Programmation & Développement : Alexandra Zaïnal
Conception & Développement : Baudouin d'Aumeries
Co-Programmation & Développement : Marc-Olivier Méhu
Soutien technique & logistique : Manuel Goepfert

Contact : metmap@orbifly.com




SOURCES & CREDITS :

   NOAA       Earth
Advisory